Bartlett, Iowa
Current Conditions -  °F | °C
As of 9:15 PM on Monday 26 Jan 2015 (Local Time) from KPMV Reporting Station
Clear Clear  
Wind Chill: 35°   Ceiling: Unl
Heat Index: 40°   Visibility: 10mi
Dew Point: 30°   Wind: 8mph
Humidity: 67%   Direction: 300°WNW
Pressure: 30.01"   Gusts: NA
Location:  40.8429°N, 95.7754°W
Report Text: KPMV 270315Z AUTO 30007KT 10SM CLR 05/M01 A3001 RMK AO2 T00461010
Loading
Personal Weather Stations






























Interactive Weather Map New forecast layout! Learn more

10-Day Weather Forecast

Advertisements
Track Severe Weather on mobile